sensor_id;sensor_type;location;lat;lon;timestamp;P1;durP1;ratioP1;P2;durP2;ratioP2
35506;SDS011;36461;52.018;21.036;2023-12-28T00:00:30;34.70;;;19.80;;
35506;SDS011;36461;52.018;21.036;2023-12-28T00:03:18;41.00;;;19.80;;
35506;SDS011;36461;52.018;21.036;2023-12-28T00:05:46;42.00;;;20.20;;
35506;SDS011;36461;52.018;21.036;2023-12-28T00:08:14;36.50;;;20.10;;
35506;SDS011;36461;52.018;21.036;2023-12-28T00:10:42;40.70;;;20.00;;
35506;SDS011;36461;52.018;21.036;2023-12-28T00:13:10;36.10;;;20.80;;
35506;SDS011;36461;52.018;21.036;2023-12-28T00:15:38;40.80;;;20.20;;
35506;SDS011;36461;52.018;21.036;2023-12-28T00:18:06;37.70;;;20.90;;
35506;SDS011;36461;52.018;21.036;2023-12-28T00:20:34;32.70;;;19.50;;
35506;SDS011;36461;52.018;21.036;2023-12-28T00:23:02;34.50;;;19.10;;
35506;SDS011;36461;52.018;21.036;2023-12-28T00:25:30;34.50;;;17.90;;
35506;SDS011;36461;52.018;21.036;2023-12-28T00:27:58;31.20;;;18.70;;
35506;SDS011;36461;52.018;21.036;2023-12-28T00:30:26;35.20;;;18.10;;
35506;SDS011;36461;52.018;21.036;2023-12-28T00:32:54;32.10;;;18.20;;
35506;SDS011;36461;52.018;21.036;2023-12-28T00:35:22;36.60;;;18.30;;
35506;SDS011;36461;52.018;21.036;2023-12-28T00:37:50;32.30;;;16.60;;
35506;SDS011;36461;52.018;21.036;2023-12-28T00:40:18;31.10;;;16.70;;
35506;SDS011;36461;52.018;21.036;2023-12-28T00:42:46;35.30;;;17.70;;
35506;SDS011;36461;52.018;21.036;2023-12-28T00:45:14;32.90;;;16.90;;
35506;SDS011;36461;52.018;21.036;2023-12-28T00:47:42;27.20;;;16.70;;
35506;SDS011;36461;52.018;21.036;2023-12-28T00:50:11;28.50;;;15.30;;
35506;SDS011;36461;52.018;21.036;2023-12-28T00:52:45;25.00;;;15.60;;
35506;SDS011;36461;52.018;21.036;2023-12-28T00:55:13;28.90;;;14.50;;
35506;SDS011;36461;52.018;21.036;2023-12-28T00:57:41;24.80;;;13.90;;
35506;SDS011;36461;52.018;21.036;2023-12-28T01:00:09;28.30;;;15.40;;
35506;SDS011;36461;52.018;21.036;2023-12-28T01:02:37;29.60;;;15.60;;
35506;SDS011;36461;52.018;21.036;2023-12-28T01:05:06;27.80;;;15.40;;
35506;SDS011;36461;52.018;21.036;2023-12-28T01:07:34;30.90;;;16.20;;
35506;SDS011;36461;52.018;21.036;2023-12-28T01:10:02;29.40;;;15.80;;
35506;SDS011;36461;52.018;21.036;2023-12-28T01:12:30;27.20;;;15.70;;
35506;SDS011;36461;52.018;21.036;2023-12-28T01:14:59;29.20;;;16.00;;
35506;SDS011;36461;52.018;21.036;2023-12-28T01:17:28;32.40;;;16.30;;
35506;SDS011;36461;52.018;21.036;2023-12-28T01:19:56;28.90;;;15.70;;
35506;SDS011;36461;52.018;21.036;2023-12-28T01:22:24;29.30;;;14.70;;
35506;SDS011;36461;52.018;21.036;2023-12-28T01:24:52;25.10;;;14.80;;
35506;SDS011;36461;52.018;21.036;2023-12-28T01:27:20;24.50;;;13.60;;
35506;SDS011;36461;52.018;21.036;2023-12-28T01:33:50;27.10;;;14.30;;
35506;SDS011;36461;52.018;21.036;2023-12-28T01:36:19;24.00;;;13.10;;
35506;SDS011;36461;52.018;21.036;2023-12-28T01:38:48;28.90;;;14.90;;
35506;SDS011;36461;52.018;21.036;2023-12-28T01:41:16;24.90;;;13.20;;
35506;SDS011;36461;52.018;21.036;2023-12-28T01:43:45;24.10;;;12.90;;
35506;SDS011;36461;52.018;21.036;2023-12-28T01:46:16;22.50;;;12.20;;
35506;SDS011;36461;52.018;21.036;2023-12-28T01:48:47;22.70;;;12.60;;
35506;SDS011;36461;52.018;21.036;2023-12-28T01:51:17;21.90;;;11.90;;
35506;SDS011;36461;52.018;21.036;2023-12-28T01:53:47;23.70;;;12.40;;
35506;SDS011;36461;52.018;21.036;2023-12-28T01:56:17;24.90;;;12.70;;
35506;SDS011;36461;52.018;21.036;2023-12-28T01:58:46;23.40;;;12.80;;
35506;SDS011;36461;52.018;21.036;2023-12-28T02:01:17;27.40;;;13.20;;
35506;SDS011;36461;52.018;21.036;2023-12-28T02:03:45;22.70;;;13.00;;
35506;SDS011;36461;52.018;21.036;2023-12-28T02:06:14;27.80;;;12.70;;
35506;SDS011;36461;52.018;21.036;2023-12-28T02:08:48;23.30;;;12.70;;
35506;SDS011;36461;52.018;21.036;2023-12-28T02:11:16;22.00;;;11.30;;
35506;SDS011;36461;52.018;21.036;2023-12-28T02:13:46;22.30;;;10.90;;
35506;SDS011;36461;52.018;21.036;2023-12-28T02:16:25;26.40;;;12.20;;
35506;SDS011;36461;52.018;21.036;2023-12-28T02:19:00;18.60;;;10.40;;
35506;SDS011;36461;52.018;21.036;2023-12-28T02:21:40;20.10;;;11.20;;
35506;SDS011;36461;52.018;21.036;2023-12-28T02:24:09;16.50;;;9.70;;
35506;SDS011;36461;52.018;21.036;2023-12-28T02:26:38;22.30;;;10.60;;
35506;SDS011;36461;52.018;21.036;2023-12-28T02:29:06;20.60;;;11.30;;
35506;SDS011;36461;52.018;21.036;2023-12-28T02:31:37;21.80;;;11.70;;
35506;SDS011;36461;52.018;21.036;2023-12-28T02:36:45;18.40;;;10.70;;
35506;SDS011;36461;52.018;21.036;2023-12-28T02:39:15;22.60;;;11.20;;
35506;SDS011;36461;52.018;21.036;2023-12-28T02:41:44;20.50;;;10.70;;
35506;SDS011;36461;52.018;21.036;2023-12-28T02:44:14;24.50;;;12.80;;
35506;SDS011;36461;52.018;21.036;2023-12-28T02:46:42;19.30;;;10.90;;
35506;SDS011;36461;52.018;21.036;2023-12-28T02:49:10;23.10;;;13.50;;
35506;SDS011;36461;52.018;21.036;2023-12-28T02:51:40;21.20;;;12.20;;
35506;SDS011;36461;52.018;21.036;2023-12-28T02:54:10;19.30;;;10.30;;
35506;SDS011;36461;52.018;21.036;2023-12-28T02:56:39;19.80;;;11.40;;
35506;SDS011;36461;52.018;21.036;2023-12-28T02:59:10;21.30;;;10.90;;
35506;SDS011;36461;52.018;21.036;2023-12-28T03:01:38;18.60;;;11.40;;
35506;SDS011;36461;52.018;21.036;2023-12-28T03:04:07;17.90;;;10.50;;
35506;SDS011;36461;52.018;21.036;2023-12-28T03:06:37;19.10;;;10.10;;
35506;SDS011;36461;52.018;21.036;2023-12-28T03:09:08;17.70;;;10.30;;
35506;SDS011;36461;52.018;21.036;2023-12-28T03:11:36;16.30;;;10.90;;
35506;SDS011;36461;52.018;21.036;2023-12-28T03:14:04;17.70;;;9.80;;
35506;SDS011;36461;52.018;21.036;2023-12-28T03:16:32;18.50;;;9.90;;
35506;SDS011;36461;52.018;21.036;2023-12-28T03:19:01;18.10;;;10.30;;
35506;SDS011;36461;52.018;21.036;2023-12-28T03:21:30;22.30;;;11.90;;
35506;SDS011;36461;52.018;21.036;2023-12-28T03:23:58;20.90;;;11.50;;
35506;SDS011;36461;52.018;21.036;2023-12-28T03:26:27;18.50;;;10.30;;
35506;SDS011;36461;52.018;21.036;2023-12-28T03:28:56;18.30;;;10.20;;
35506;SDS011;36461;52.018;21.036;2023-12-28T03:31:24;21.50;;;10.50;;
35506;SDS011;36461;52.018;21.036;2023-12-28T03:33:53;20.20;;;10.40;;
35506;SDS011;36461;52.018;21.036;2023-12-28T03:36:21;22.20;;;11.00;;
35506;SDS011;36461;52.018;21.036;2023-12-28T03:38:53;17.20;;;9.80;;
35506;SDS011;36461;52.018;21.036;2023-12-28T03:41:21;15.60;;;9.60;;
35506;SDS011;36461;52.018;21.036;2023-12-28T03:43:50;17.10;;;9.60;;
35506;SDS011;36461;52.018;21.036;2023-12-28T03:46:18;18.00;;;9.70;;
35506;SDS011;36461;52.018;21.036;2023-12-28T03:48:46;19.70;;;10.60;;
35506;SDS011;36461;52.018;21.036;2023-12-28T03:51:15;17.80;;;9.50;;
35506;SDS011;36461;52.018;21.036;2023-12-28T03:53:44;18.30;;;10.10;;
35506;SDS011;36461;52.018;21.036;2023-12-28T03:56:20;18.00;;;9.30;;
35506;SDS011;36461;52.018;21.036;2023-12-28T03:58:50;20.20;;;9.20;;
35506;SDS011;36461;52.018;21.036;2023-12-28T04:01:22;16.50;;;9.70;;
35506;SDS011;36461;52.018;21.036;2023-12-28T04:03:50;17.90;;;9.20;;
35506;SDS011;36461;52.018;21.036;2023-12-28T04:06:19;23.90;;;8.90;;
35506;SDS011;36461;52.018;21.036;2023-12-28T04:08:47;18.40;;;8.70;;
35506;SDS011;36461;52.018;21.036;2023-12-28T04:11:15;18.60;;;10.00;;
35506;SDS011;36461;52.018;21.036;2023-12-28T04:13:44;17.20;;;8.90;;
35506;SDS011;36461;52.018;21.036;2023-12-28T04:16:15;17.00;;;8.60;;
35506;SDS011;36461;52.018;21.036;2023-12-28T04:18:43;21.30;;;9.90;;
35506;SDS011;36461;52.018;21.036;2023-12-28T04:21:12;22.10;;;9.90;;
35506;SDS011;36461;52.018;21.036;2023-12-28T04:23:41;15.80;;;8.80;;
35506;SDS011;36461;52.018;21.036;2023-12-28T04:26:10;19.50;;;9.90;;
35506;SDS011;36461;52.018;21.036;2023-12-28T04:28:38;21.10;;;10.60;;
35506;SDS011;36461;52.018;21.036;2023-12-28T04:31:07;20.20;;;10.20;;
35506;SDS011;36461;52.018;21.036;2023-12-28T04:33:36;20.80;;;10.00;;
35506;SDS011;36461;52.018;21.036;2023-12-28T04:36:04;20.30;;;10.30;;
35506;SDS011;36461;52.018;21.036;2023-12-28T04:38:33;19.20;;;10.70;;
35506;SDS011;36461;52.018;21.036;2023-12-28T04:41:02;20.50;;;10.80;;
35506;SDS011;36461;52.018;21.036;2023-12-28T04:43:31;22.00;;;11.40;;
35506;SDS011;36461;52.018;21.036;2023-12-28T04:46:03;21.70;;;11.40;;
35506;SDS011;36461;52.018;21.036;2023-12-28T04:48:32;19.20;;;10.80;;
35506;SDS011;36461;52.018;21.036;2023-12-28T04:51:04;18.30;;;10.30;;
35506;SDS011;36461;52.018;21.036;2023-12-28T04:53:32;22.10;;;11.90;;
35506;SDS011;36461;52.018;21.036;2023-12-28T04:56:01;21.70;;;12.00;;
35506;SDS011;36461;52.018;21.036;2023-12-28T04:58:30;20.00;;;10.80;;
35506;SDS011;36461;52.018;21.036;2023-12-28T05:00:58;20.80;;;10.60;;
35506;SDS011;36461;52.018;21.036;2023-12-28T05:03:26;23.30;;;11.40;;
35506;SDS011;36461;52.018;21.036;2023-12-28T05:05:55;23.50;;;12.80;;
35506;SDS011;36461;52.018;21.036;2023-12-28T05:08:23;18.90;;;10.90;;
35506;SDS011;36461;52.018;21.036;2023-12-28T05:10:51;20.50;;;11.00;;
35506;SDS011;36461;52.018;21.036;2023-12-28T05:13:19;20.50;;;11.10;;
35506;SDS011;36461;52.018;21.036;2023-12-28T05:15:47;22.10;;;11.60;;
35506;SDS011;36461;52.018;21.036;2023-12-28T05:18:15;21.50;;;11.80;;
35506;SDS011;36461;52.018;21.036;2023-12-28T05:20:43;22.30;;;12.90;;
35506;SDS011;36461;52.018;21.036;2023-12-28T05:23:11;25.50;;;14.90;;
35506;SDS011;36461;52.018;21.036;2023-12-28T05:25:39;33.00;;;16.90;;
35506;SDS011;36461;52.018;21.036;2023-12-28T05:28:07;30.20;;;15.60;;
35506;SDS011;36461;52.018;21.036;2023-12-28T05:30:35;26.10;;;14.20;;
35506;SDS011;36461;52.018;21.036;2023-12-28T05:33:03;26.00;;;14.00;;
35506;SDS011;36461;52.018;21.036;2023-12-28T05:35:32;26.10;;;13.70;;
35506;SDS011;36461;52.018;21.036;2023-12-28T05:38:00;27.80;;;14.10;;
35506;SDS011;36461;52.018;21.036;2023-12-28T05:40:28;25.80;;;14.20;;
35506;SDS011;36461;52.018;21.036;2023-12-28T05:42:56;29.70;;;13.60;;
35506;SDS011;36461;52.018;21.036;2023-12-28T05:45:24;28.70;;;14.60;;
35506;SDS011;36461;52.018;21.036;2023-12-28T05:47:52;29.00;;;14.70;;
35506;SDS011;36461;52.018;21.036;2023-12-28T05:50:20;28.60;;;14.70;;
35506;SDS011;36461;52.018;21.036;2023-12-28T05:52:48;29.90;;;13.90;;
35506;SDS011;36461;52.018;21.036;2023-12-28T05:55:16;28.10;;;14.70;;
35506;SDS011;36461;52.018;21.036;2023-12-28T05:57:44;30.10;;;15.00;;
35506;SDS011;36461;52.018;21.036;2023-12-28T06:00:13;28.90;;;14.20;;
35506;SDS011;36461;52.018;21.036;2023-12-28T06:02:42;28.30;;;13.90;;
35506;SDS011;36461;52.018;21.036;2023-12-28T06:05:10;38.40;;;26.00;;
35506;SDS011;36461;52.018;21.036;2023-12-28T06:07:38;32.60;;;17.30;;
35506;SDS011;36461;52.018;21.036;2023-12-28T06:10:06;34.10;;;15.70;;
35506;SDS011;36461;52.018;21.036;2023-12-28T06:12:35;27.50;;;14.40;;
35506;SDS011;36461;52.018;21.036;2023-12-28T06:15:04;22.70;;;13.00;;
35506;SDS011;36461;52.018;21.036;2023-12-28T06:17:32;23.90;;;11.50;;
35506;SDS011;36461;52.018;21.036;2023-12-28T06:20:02;22.50;;;10.50;;
35506;SDS011;36461;52.018;21.036;2023-12-28T06:22:30;20.40;;;10.50;;
35506;SDS011;36461;52.018;21.036;2023-12-28T06:24:58;22.80;;;10.80;;
35506;SDS011;36461;52.018;21.036;2023-12-28T06:27:27;18.20;;;11.40;;
35506;SDS011;36461;52.018;21.036;2023-12-28T06:29:55;16.90;;;8.70;;
35506;SDS011;36461;52.018;21.036;2023-12-28T06:32:23;17.50;;;9.00;;
35506;SDS011;36461;52.018;21.036;2023-12-28T06:34:52;17.30;;;9.50;;
35506;SDS011;36461;52.018;21.036;2023-12-28T06:37:20;15.50;;;9.10;;
35506;SDS011;36461;52.018;21.036;2023-12-28T06:39:48;18.50;;;8.80;;
35506;SDS011;36461;52.018;21.036;2023-12-28T06:42:16;17.10;;;9.50;;
35506;SDS011;36461;52.018;21.036;2023-12-28T06:44:44;19.40;;;9.00;;
35506;SDS011;36461;52.018;21.036;2023-12-28T06:47:12;17.70;;;9.60;;
35506;SDS011;36461;52.018;21.036;2023-12-28T06:49:40;18.00;;;9.30;;
35506;SDS011;36461;52.018;21.036;2023-12-28T06:52:08;13.70;;;8.70;;
35506;SDS011;36461;52.018;21.036;2023-12-28T06:54:36;17.00;;;8.90;;
35506;SDS011;36461;52.018;21.036;2023-12-28T06:57:04;14.20;;;8.20;;
35506;SDS011;36461;52.018;21.036;2023-12-28T06:59:32;15.90;;;8.30;;
35506;SDS011;36461;52.018;21.036;2023-12-28T07:02:00;14.20;;;8.50;;
35506;SDS011;36461;52.018;21.036;2023-12-28T07:04:28;13.70;;;7.70;;
35506;SDS011;36461;52.018;21.036;2023-12-28T07:06:57;11.80;;;7.20;;
35506;SDS011;36461;52.018;21.036;2023-12-28T07:09:25;12.70;;;7.80;;
35506;SDS011;36461;52.018;21.036;2023-12-28T07:11:53;16.70;;;8.30;;
35506;SDS011;36461;52.018;21.036;2023-12-28T07:14:21;16.30;;;7.90;;
35506;SDS011;36461;52.018;21.036;2023-12-28T07:16:49;15.90;;;8.40;;
35506;SDS011;36461;52.018;21.036;2023-12-28T07:19:17;18.00;;;8.50;;
35506;SDS011;36461;52.018;21.036;2023-12-28T07:21:45;14.40;;;7.60;;
35506;SDS011;36461;52.018;21.036;2023-12-28T07:24:13;16.30;;;8.30;;
35506;SDS011;36461;52.018;21.036;2023-12-28T07:26:41;15.60;;;8.10;;
35506;SDS011;36461;52.018;21.036;2023-12-28T07:33:58;14.60;;;8.20;;
35506;SDS011;36461;52.018;21.036;2023-12-28T07:36:26;16.20;;;8.90;;
35506;SDS011;36461;52.018;21.036;2023-12-28T07:38:54;15.60;;;8.30;;
35506;SDS011;36461;52.018;21.036;2023-12-28T07:45:57;14.30;;;7.90;;
35506;SDS011;36461;52.018;21.036;2023-12-28T07:48:25;15.80;;;9.10;;
35506;SDS011;36461;52.018;21.036;2023-12-28T07:50:53;19.60;;;9.10;;
35506;SDS011;36461;52.018;21.036;2023-12-28T07:53:21;15.90;;;8.70;;
35506;SDS011;36461;52.018;21.036;2023-12-28T08:00:24;14.40;;;7.80;;
35506;SDS011;36461;52.018;21.036;2023-12-28T08:07:27;17.90;;;9.60;;
35506;SDS011;36461;52.018;21.036;2023-12-28T08:09:55;15.90;;;9.50;;
35506;SDS011;36461;52.018;21.036;2023-12-28T08:12:23;14.80;;;8.70;;
35506;SDS011;36461;52.018;21.036;2023-12-28T08:14:52;16.70;;;9.40;;
35506;SDS011;36461;52.018;21.036;2023-12-28T08:17:20;17.70;;;8.80;;
35506;SDS011;36461;52.018;21.036;2023-12-28T08:19:48;16.10;;;8.70;;
35506;SDS011;36461;52.018;21.036;2023-12-28T08:22:17;16.30;;;9.60;;
35506;SDS011;36461;52.018;21.036;2023-12-28T08:24:45;16.40;;;9.40;;
35506;SDS011;36461;52.018;21.036;2023-12-28T08:27:13;15.30;;;8.20;;
35506;SDS011;36461;52.018;21.036;2023-12-28T08:29:41;17.40;;;9.20;;
35506;SDS011;36461;52.018;21.036;2023-12-28T08:32:10;16.50;;;9.30;;
35506;SDS011;36461;52.018;21.036;2023-12-28T08:34:39;15.70;;;8.70;;
35506;SDS011;36461;52.018;21.036;2023-12-28T08:37:07;17.40;;;9.00;;
35506;SDS011;36461;52.018;21.036;2023-12-28T08:39:35;14.20;;;9.80;;
35506;SDS011;36461;52.018;21.036;2023-12-28T08:42:03;16.50;;;9.40;;
35506;SDS011;36461;52.018;21.036;2023-12-28T08:44:31;15.00;;;8.90;;
35506;SDS011;36461;52.018;21.036;2023-12-28T08:47:00;15.10;;;8.80;;
35506;SDS011;36461;52.018;21.036;2023-12-28T08:49:29;14.60;;;8.40;;
35506;SDS011;36461;52.018;21.036;2023-12-28T08:51:57;15.10;;;8.80;;
35506;SDS011;36461;52.018;21.036;2023-12-28T08:54:25;16.40;;;9.50;;
35506;SDS011;36461;52.018;21.036;2023-12-28T08:56:53;16.20;;;9.80;;
35506;SDS011;36461;52.018;21.036;2023-12-28T08:59:26;16.50;;;9.90;;
35506;SDS011;36461;52.018;21.036;2023-12-28T09:01:54;17.20;;;10.00;;
35506;SDS011;36461;52.018;21.036;2023-12-28T09:04:22;15.30;;;8.90;;
35506;SDS011;36461;52.018;21.036;2023-12-28T09:06:51;15.70;;;9.10;;
35506;SDS011;36461;52.018;21.036;2023-12-28T09:09:19;14.40;;;8.70;;
35506;SDS011;36461;52.018;21.036;2023-12-28T09:11:47;14.70;;;9.30;;
35506;SDS011;36461;52.018;21.036;2023-12-28T09:14:15;15.30;;;8.70;;
35506;SDS011;36461;52.018;21.036;2023-12-28T09:16:43;14.40;;;9.20;;
35506;SDS011;36461;52.018;21.036;2023-12-28T09:19:13;15.60;;;9.10;;
35506;SDS011;36461;52.018;21.036;2023-12-28T09:21:42;16.00;;;9.30;;
35506;SDS011;36461;52.018;21.036;2023-12-28T09:24:10;16.50;;;9.80;;
35506;SDS011;36461;52.018;21.036;2023-12-28T09:26:38;15.40;;;9.90;;
35506;SDS011;36461;52.018;21.036;2023-12-28T09:29:07;15.30;;;9.40;;
35506;SDS011;36461;52.018;21.036;2023-12-28T09:31:35;14.70;;;8.90;;
35506;SDS011;36461;52.018;21.036;2023-12-28T09:34:03;14.90;;;9.10;;
35506;SDS011;36461;52.018;21.036;2023-12-28T09:36:32;12.70;;;8.90;;
35506;SDS011;36461;52.018;21.036;2023-12-28T09:39:00;14.40;;;8.40;;
35506;SDS011;36461;52.018;21.036;2023-12-28T09:41:29;13.20;;;8.30;;
35506;SDS011;36461;52.018;21.036;2023-12-28T09:44:03;14.20;;;9.00;;
35506;SDS011;36461;52.018;21.036;2023-12-28T09:46:42;13.60;;;7.70;;
35506;SDS011;36461;52.018;21.036;2023-12-28T09:49:12;12.90;;;7.70;;
35506;SDS011;36461;52.018;21.036;2023-12-28T09:51:40;13.60;;;8.60;;
35506;SDS011;36461;52.018;21.036;2023-12-28T09:54:08;15.90;;;8.50;;
35506;SDS011;36461;52.018;21.036;2023-12-28T09:56:36;13.60;;;8.20;;
35506;SDS011;36461;52.018;21.036;2023-12-28T09:59:05;13.70;;;8.20;;
35506;SDS011;36461;52.018;21.036;2023-12-28T10:01:34;12.90;;;8.10;;
35506;SDS011;36461;52.018;21.036;2023-12-28T10:04:02;13.00;;;7.40;;
35506;SDS011;36461;52.018;21.036;2023-12-28T10:06:31;12.20;;;7.40;;
35506;SDS011;36461;52.018;21.036;2023-12-28T10:09:00;13.50;;;7.90;;
35506;SDS011;36461;52.018;21.036;2023-12-28T10:11:28;11.30;;;7.00;;
35506;SDS011;36461;52.018;21.036;2023-12-28T10:13:56;11.40;;;7.60;;
35506;SDS011;36461;52.018;21.036;2023-12-28T10:16:26;14.50;;;8.20;;
35506;SDS011;36461;52.018;21.036;2023-12-28T10:18:55;11.50;;;7.30;;
35506;SDS011;36461;52.018;21.036;2023-12-28T10:21:23;12.60;;;7.20;;
35506;SDS011;36461;52.018;21.036;2023-12-28T10:23:51;11.30;;;6.90;;
35506;SDS011;36461;52.018;21.036;2023-12-28T10:26:20;12.50;;;7.60;;
35506;SDS011;36461;52.018;21.036;2023-12-28T10:28:49;12.50;;;7.80;;
35506;SDS011;36461;52.018;21.036;2023-12-28T10:31:16;10.80;;;7.10;;
35506;SDS011;36461;52.018;21.036;2023-12-28T10:33:45;12.10;;;7.00;;
35506;SDS011;36461;52.018;21.036;2023-12-28T10:36:14;12.10;;;6.60;;
35506;SDS011;36461;52.018;21.036;2023-12-28T10:38:43;9.40;;;5.80;;
35506;SDS011;36461;52.018;21.036;2023-12-28T10:41:12;10.10;;;5.80;;
35506;SDS011;36461;52.018;21.036;2023-12-28T10:43:46;10.50;;;6.40;;
35506;SDS011;36461;52.018;21.036;2023-12-28T10:46:22;8.90;;;5.70;;
35506;SDS011;36461;52.018;21.036;2023-12-28T10:48:59;9.50;;;6.40;;
35506;SDS011;36461;52.018;21.036;2023-12-28T10:51:28;8.20;;;5.80;;
35506;SDS011;36461;52.018;21.036;2023-12-28T10:59:35;10.10;;;5.80;;
35506;SDS011;36461;52.018;21.036;2023-12-28T11:02:16;8.90;;;5.00;;
35506;SDS011;36461;52.018;21.036;2023-12-28T11:04:50;7.20;;;4.70;;
35506;SDS011;36461;52.018;21.036;2023-12-28T11:07:20;8.00;;;4.50;;
35506;SDS011;36461;52.018;21.036;2023-12-28T11:09:49;7.70;;;4.50;;
35506;SDS011;36461;52.018;21.036;2023-12-28T11:12:18;7.40;;;4.60;;
35506;SDS011;36461;52.018;21.036;2023-12-28T11:14:48;8.50;;;4.80;;
35506;SDS011;36461;52.018;21.036;2023-12-28T11:17:18;8.50;;;5.20;;
35506;SDS011;36461;52.018;21.036;2023-12-28T11:19:48;10.30;;;5.20;;
35506;SDS011;36461;52.018;21.036;2023-12-28T11:22:17;9.50;;;5.10;;
35506;SDS011;36461;52.018;21.036;2023-12-28T11:24:46;8.50;;;4.90;;
35506;SDS011;36461;52.018;21.036;2023-12-28T11:27:15;8.20;;;5.10;;
35506;SDS011;36461;52.018;21.036;2023-12-28T11:29:43;7.20;;;5.40;;
35506;SDS011;36461;52.018;21.036;2023-12-28T11:32:12;8.00;;;5.50;;
35506;SDS011;36461;52.018;21.036;2023-12-28T11:34:41;8.60;;;5.30;;
35506;SDS011;36461;52.018;21.036;2023-12-28T11:37:12;9.50;;;5.50;;
35506;SDS011;36461;52.018;21.036;2023-12-28T11:39:46;12.50;;;6.30;;
35506;SDS011;36461;52.018;21.036;2023-12-28T11:42:19;10.60;;;5.90;;
35506;SDS011;36461;52.018;21.036;2023-12-28T11:44:54;9.30;;;5.30;;
35506;SDS011;36461;52.018;21.036;2023-12-28T11:47:24;11.00;;;6.10;;
35506;SDS011;36461;52.018;21.036;2023-12-28T11:49:55;8.40;;;6.20;;
35506;SDS011;36461;52.018;21.036;2023-12-28T11:52:33;8.20;;;5.20;;
35506;SDS011;36461;52.018;21.036;2023-12-28T11:55:04;9.00;;;5.40;;
35506;SDS011;36461;52.018;21.036;2023-12-28T11:57:34;7.90;;;5.40;;
35506;SDS011;36461;52.018;21.036;2023-12-28T12:00:05;9.10;;;5.10;;
35506;SDS011;36461;52.018;21.036;2023-12-28T12:02:38;7.50;;;4.90;;
35506;SDS011;36461;52.018;21.036;2023-12-28T12:05:15;7.10;;;4.80;;
35506;SDS011;36461;52.018;21.036;2023-12-28T12:07:48;7.00;;;4.60;;
35506;SDS011;36461;52.018;21.036;2023-12-28T12:10:19;8.80;;;5.40;;
35506;SDS011;36461;52.018;21.036;2023-12-28T12:12:53;9.50;;;4.90;;
35506;SDS011;36461;52.018;21.036;2023-12-28T12:15:26;10.60;;;6.30;;
35506;SDS011;36461;52.018;21.036;2023-12-28T12:17:58;7.60;;;4.80;;
35506;SDS011;36461;52.018;21.036;2023-12-28T12:20:32;8.70;;;5.10;;
35506;SDS011;36461;52.018;21.036;2023-12-28T12:23:05;10.10;;;5.10;;
35506;SDS011;36461;52.018;21.036;2023-12-28T12:25:35;10.20;;;5.30;;
35506;SDS011;36461;52.018;21.036;2023-12-28T12:28:07;7.30;;;4.50;;
35506;SDS011;36461;52.018;21.036;2023-12-28T12:30:39;10.00;;;5.50;;
35506;SDS011;36461;52.018;21.036;2023-12-28T12:33:11;8.40;;;5.40;;
35506;SDS011;36461;52.018;21.036;2023-12-28T12:35:42;10.10;;;5.00;;
35506;SDS011;36461;52.018;21.036;2023-12-28T12:38:12;9.80;;;4.90;;
35506;SDS011;36461;52.018;21.036;2023-12-28T12:40:44;7.80;;;4.40;;
35506;SDS011;36461;52.018;21.036;2023-12-28T12:43:14;8.00;;;5.00;;
35506;SDS011;36461;52.018;21.036;2023-12-28T12:45:47;7.20;;;4.40;;
35506;SDS011;36461;52.018;21.036;2023-12-28T12:48:18;7.10;;;4.60;;
35506;SDS011;36461;52.018;21.036;2023-12-28T12:50:49;7.40;;;4.40;;
35506;SDS011;36461;52.018;21.036;2023-12-28T12:53:20;7.80;;;4.50;;
35506;SDS011;36461;52.018;21.036;2023-12-28T12:55:53;8.60;;;4.30;;
35506;SDS011;36461;52.018;21.036;2023-12-28T12:58:26;8.70;;;4.70;;
35506;SDS011;36461;52.018;21.036;2023-12-28T13:08:31;8.50;;;4.60;;
35506;SDS011;36461;52.018;21.036;2023-12-28T13:10:59;7.70;;;4.50;;
35506;SDS011;36461;52.018;21.036;2023-12-28T13:13:28;6.00;;;3.90;;
35506;SDS011;36461;52.018;21.036;2023-12-28T13:15:56;7.50;;;4.30;;
35506;SDS011;36461;52.018;21.036;2023-12-28T13:18:24;6.70;;;4.10;;
35506;SDS011;36461;52.018;21.036;2023-12-28T13:20:53;9.10;;;4.00;;
35506;SDS011;36461;52.018;21.036;2023-12-28T13:23:21;6.50;;;4.20;;
35506;SDS011;36461;52.018;21.036;2023-12-28T13:25:49;6.80;;;3.90;;
35506;SDS011;36461;52.018;21.036;2023-12-28T13:28:17;9.60;;;6.10;;
35506;SDS011;36461;52.018;21.036;2023-12-28T13:30:46;7.40;;;4.70;;
35506;SDS011;36461;52.018;21.036;2023-12-28T13:33:14;9.90;;;7.30;;
35506;SDS011;36461;52.018;21.036;2023-12-28T13:35:42;13.00;;;9.30;;
35506;SDS011;36461;52.018;21.036;2023-12-28T13:38:10;10.10;;;5.50;;
35506;SDS011;36461;52.018;21.036;2023-12-28T13:40:39;7.50;;;5.00;;
35506;SDS011;36461;52.018;21.036;2023-12-28T13:43:07;8.40;;;4.30;;
35506;SDS011;36461;52.018;21.036;2023-12-28T13:45:35;7.80;;;4.60;;
35506;SDS011;36461;52.018;21.036;2023-12-28T13:48:04;7.70;;;4.40;;
35506;SDS011;36461;52.018;21.036;2023-12-28T13:50:33;6.30;;;3.80;;
35506;SDS011;36461;52.018;21.036;2023-12-28T13:53:01;8.60;;;5.80;;
35506;SDS011;36461;52.018;21.036;2023-12-28T13:55:30;7.20;;;3.90;;
35506;SDS011;36461;52.018;21.036;2023-12-28T13:57:58;7.60;;;3.80;;
35506;SDS011;36461;52.018;21.036;2023-12-28T14:00:27;6.40;;;3.60;;
35506;SDS011;36461;52.018;21.036;2023-12-28T14:02:55;5.80;;;4.00;;
35506;SDS011;36461;52.018;21.036;2023-12-28T14:05:24;6.10;;;3.80;;
35506;SDS011;36461;52.018;21.036;2023-12-28T14:07:54;8.50;;;4.60;;
35506;SDS011;36461;52.018;21.036;2023-12-28T14:10:22;8.10;;;4.20;;
35506;SDS011;36461;52.018;21.036;2023-12-28T14:12:50;7.20;;;4.00;;
35506;SDS011;36461;52.018;21.036;2023-12-28T14:15:19;6.90;;;4.10;;
35506;SDS011;36461;52.018;21.036;2023-12-28T14:17:47;7.00;;;4.40;;
35506;SDS011;36461;52.018;21.036;2023-12-28T14:20:16;8.20;;;4.90;;
35506;SDS011;36461;52.018;21.036;2023-12-28T14:22:45;6.50;;;4.30;;
35506;SDS011;36461;52.018;21.036;2023-12-28T14:25:14;6.70;;;4.40;;
35506;SDS011;36461;52.018;21.036;2023-12-28T14:27:42;8.70;;;4.60;;
35506;SDS011;36461;52.018;21.036;2023-12-28T14:30:12;9.40;;;4.80;;
35506;SDS011;36461;52.018;21.036;2023-12-28T14:32:40;9.30;;;4.80;;
35506;SDS011;36461;52.018;21.036;2023-12-28T14:35:09;7.60;;;4.60;;
35506;SDS011;36461;52.018;21.036;2023-12-28T14:37:38;6.60;;;4.40;;
35506;SDS011;36461;52.018;21.036;2023-12-28T14:40:07;9.10;;;4.60;;
35506;SDS011;36461;52.018;21.036;2023-12-28T14:42:38;6.60;;;4.30;;
35506;SDS011;36461;52.018;21.036;2023-12-28T14:45:07;8.50;;;4.30;;
35506;SDS011;36461;52.018;21.036;2023-12-28T14:47:35;7.90;;;4.40;;
35506;SDS011;36461;52.018;21.036;2023-12-28T14:50:03;8.50;;;4.40;;
35506;SDS011;36461;52.018;21.036;2023-12-28T14:52:33;7.20;;;4.40;;
35506;SDS011;36461;52.018;21.036;2023-12-28T14:55:02;8.90;;;5.00;;
35506;SDS011;36461;52.018;21.036;2023-12-28T14:57:31;7.30;;;4.60;;
35506;SDS011;36461;52.018;21.036;2023-12-28T14:59:59;7.00;;;4.60;;
35506;SDS011;36461;52.018;21.036;2023-12-28T15:02:28;7.30;;;4.60;;
35506;SDS011;36461;52.018;21.036;2023-12-28T15:04:57;8.70;;;4.80;;
35506;SDS011;36461;52.018;21.036;2023-12-28T15:07:27;7.70;;;5.30;;
35506;SDS011;36461;52.018;21.036;2023-12-28T15:09:56;11.50;;;5.40;;